createdAt,value
2023-01-17T00:00:30.259Z,92486.00
2023-01-17T00:01:30.143Z,92486.00
2023-01-17T00:02:30.181Z,92486.00
2023-01-17T00:03:30.165Z,92486.00
2023-01-17T00:04:30.112Z,92484.00
2023-01-17T00:05:30.119Z,92482.00
2023-01-17T00:54:43.161Z,92513.00
2023-01-17T00:55:44.134Z,92521.00
2023-01-17T00:56:44.115Z,92523.00
2023-01-17T00:57:44.114Z,92521.00
2023-01-17T00:58:44.095Z,92517.00
2023-01-17T00:59:44.086Z,92517.00
2023-01-17T01:00:44.117Z,92521.00
2023-01-17T01:01:44.249Z,92523.00
2023-01-17T01:02:44.145Z,92523.00
2023-01-17T01:03:44.052Z,92525.00
2023-01-17T01:04:44.040Z,92525.00
2023-01-17T01:05:44.053Z,92529.00
2023-01-17T01:06:44.020Z,92529.00
2023-01-17T01:07:44.011Z,92531.00
2023-01-17T01:08:44.009Z,92531.00
2023-01-17T01:09:43.997Z,92535.00
2023-01-17T01:10:44.040Z,92539.00
2023-01-17T01:11:43.981Z,92539.00
2023-01-17T01:12:43.977Z,92541.00
2023-01-17T01:13:44.009Z,92541.00
2023-01-17T01:14:43.952Z,92541.00
2023-01-17T01:15:43.941Z,92545.00
2023-01-17T01:16:43.929Z,92545.00
2023-01-17T01:17:43.929Z,92547.00
2023-01-17T01:18:43.909Z,92547.00
2023-01-17T01:19:43.912Z,92547.00
2023-01-17T01:20:43.890Z,92549.00
2023-01-17T01:21:43.883Z,92549.00
2023-01-17T01:22:43.877Z,92549.00
2023-01-17T01:23:43.871Z,92547.00
2023-01-17T01:24:43.852Z,92547.00
2023-01-17T01:25:43.846Z,92549.00
2023-01-17T01:26:43.871Z,92549.00
2023-01-17T01:27:43.821Z,92550.00
2023-01-17T01:28:43.823Z,92550.00
2023-01-17T01:29:43.813Z,92552.00
2023-01-17T01:30:43.806Z,92550.00
2023-01-17T01:31:43.837Z,92549.00
2023-01-17T01:32:43.782Z,92549.00
2023-01-17T01:33:43.793Z,92549.00
2023-01-17T01:34:43.770Z,92549.00
2023-01-17T01:35:43.760Z,92552.00
2023-01-17T01:36:43.755Z,92550.00
2023-01-17T01:37:43.737Z,92547.00
2023-01-17T01:38:43.731Z,92552.00
2023-01-17T01:39:43.729Z,92554.00
2023-01-17T01:40:43.710Z,92552.00
2023-01-17T01:41:43.703Z,92558.00
2023-01-17T01:42:43.717Z,92560.00
2023-01-17T01:43:43.682Z,92562.00
2023-01-17T01:44:43.674Z,92562.00
2023-01-17T01:45:43.779Z,92564.00
2023-01-17T01:46:43.653Z,92566.00
2023-01-17T01:47:43.645Z,92570.00
2023-01-17T01:48:43.640Z,92572.00
2023-01-17T01:49:43.632Z,92580.00
2023-01-17T01:50:43.617Z,92584.00
2023-01-17T01:51:43.668Z,92586.00
2023-01-17T01:52:43.603Z,92582.00
2023-01-17T01:53:43.590Z,92589.00
2023-01-17T01:54:43.607Z,92589.00
2023-01-17T01:55:43.571Z,92593.00
2023-01-17T01:56:43.559Z,92593.00
2023-01-17T01:57:43.548Z,92595.00
2023-01-17T01:58:43.583Z,92593.00
2023-01-17T01:59:43.539Z,92591.00
2023-01-17T02:00:43.555Z,92589.00
2023-01-17T02:01:43.667Z,92591.00
2023-01-17T02:02:43.508Z,92595.00
2023-01-17T02:03:43.536Z,92595.00
2023-01-17T02:04:43.490Z,92597.00
2023-01-17T02:05:43.480Z,92601.00
2023-01-17T02:06:43.467Z,92599.00
2023-01-17T02:07:43.464Z,92597.00
2023-01-17T02:08:43.453Z,92593.00
2023-01-17T02:09:43.446Z,92591.00
2023-01-17T02:10:43.440Z,92587.00
2023-01-17T02:11:43.449Z,92587.00
2023-01-17T02:12:43.416Z,92587.00
2023-01-17T02:13:43.435Z,92589.00
2023-01-17T02:14:43.422Z,92586.00
2023-01-17T02:15:43.386Z,92587.00
2023-01-17T02:16:43.451Z,92584.00
2023-01-17T02:17:43.367Z,92587.00
2023-01-17T02:18:43.362Z,92584.00
2023-01-17T02:19:43.350Z,92589.00
2023-01-17T02:20:43.338Z,92589.00
2023-01-17T02:21:43.337Z,92589.00
2023-01-17T02:22:43.332Z,92591.00
2023-01-17T02:23:43.315Z,92589.00
2023-01-17T02:24:43.316Z,92587.00
2023-01-17T02:25:43.643Z,92587.00
2023-01-17T02:26:43.287Z,92572.00
2023-01-17T02:27:43.274Z,92570.00
2023-01-17T02:28:43.278Z,92562.00
2023-01-17T02:29:43.256Z,92560.00
2023-01-17T02:30:43.274Z,92558.00
2023-01-17T02:31:43.257Z,92560.00
2023-01-17T02:32:43.238Z,92564.00
2023-01-17T02:33:43.221Z,92564.00
2023-01-17T02:34:43.210Z,92568.00
2023-01-17T02:35:43.206Z,92566.00
2023-01-17T02:36:43.197Z,92568.00
2023-01-17T02:37:43.186Z,92566.00
2023-01-17T02:38:43.177Z,92566.00
2023-01-17T02:39:43.170Z,92568.00
2023-01-17T02:40:43.180Z,92568.00
2023-01-17T02:41:43.148Z,92568.00
2023-01-17T02:42:43.137Z,92566.00
2023-01-17T02:43:43.129Z,92564.00
2023-01-17T02:44:43.122Z,92560.00
2023-01-17T02:45:43.156Z,92560.00
2023-01-17T02:46:43.130Z,92560.00
2023-01-17T02:47:43.092Z,92560.00
2023-01-17T02:48:43.095Z,92560.00
2023-01-17T02:49:43.074Z,92560.00
2023-01-17T02:50:43.069Z,92558.00
2023-01-17T02:51:43.059Z,92554.00
2023-01-17T02:52:43.052Z,92552.00
2023-01-17T02:53:43.107Z,92549.00
2023-01-17T02:54:43.026Z,92547.00
2023-01-17T02:55:43.027Z,92543.00
2023-01-17T02:56:43.009Z,92545.00
2023-01-17T02:57:43.002Z,92547.00
2023-01-17T02:58:42.992Z,92549.00
2023-01-17T02:59:42.981Z,92554.00
2023-01-17T03:00:42.982Z,92556.00
2023-01-17T03:01:43.034Z,92554.00
2023-01-17T03:02:43.023Z,92552.00
2023-01-17T03:03:42.955Z,92554.00
2023-01-17T03:04:42.951Z,92554.00
2023-01-17T03:05:42.931Z,92552.00
2023-01-17T03:06:42.916Z,92556.00
2023-01-17T03:07:42.929Z,92554.00
2023-01-17T03:08:42.903Z,92552.00
2023-01-17T03:09:42.893Z,92560.00
2023-01-17T03:10:42.912Z,92560.00
2023-01-17T03:11:42.869Z,92560.00
2023-01-17T03:12:42.862Z,92556.00
2023-01-17T03:13:42.856Z,92558.00
2023-01-17T03:14:42.844Z,92562.00
2023-01-17T03:15:42.871Z,92560.00
2023-01-17T03:16:42.893Z,92562.00
2023-01-17T03:17:42.824Z,92562.00
2023-01-17T03:18:42.841Z,92562.00
2023-01-17T03:19:42.799Z,92564.00
2023-01-17T03:20:42.831Z,92564.00
2023-01-17T03:21:42.784Z,92562.00
2023-01-17T03:22:42.774Z,92562.00
2023-01-17T03:23:42.771Z,92562.00
2023-01-17T03:24:42.752Z,92562.00
2023-01-17T03:25:42.743Z,92564.00
2023-01-17T03:26:42.735Z,92566.00
2023-01-17T03:27:42.736Z,92566.00
2023-01-17T03:28:42.718Z,92568.00
2023-01-17T03:29:42.734Z,92564.00
2023-01-17T03:30:42.758Z,92564.00
2023-01-17T03:31:42.696Z,92562.00
2023-01-17T03:32:42.685Z,92564.00
2023-01-17T03:33:42.668Z,92570.00
2023-01-17T03:34:42.689Z,92572.00
2023-01-17T03:35:42.651Z,92570.00
2023-01-17T03:36:42.652Z,92568.00
2023-01-17T03:37:42.633Z,92566.00
2023-01-17T03:38:42.623Z,92566.00
2023-01-17T03:39:42.614Z,92564.00
2023-01-17T03:40:42.619Z,92564.00
2023-01-17T03:41:42.599Z,92564.00
2023-01-17T03:42:42.586Z,92564.00
2023-01-17T03:43:42.576Z,92568.00
2023-01-17T03:44:42.569Z,92570.00
2023-01-17T03:45:42.633Z,92566.00
2023-01-17T03:46:42.551Z,92564.00
2023-01-17T03:47:42.541Z,92564.00
2023-01-17T03:48:42.533Z,92564.00
2023-01-17T03:49:42.528Z,92568.00
2023-01-17T03:50:42.536Z,92570.00
2023-01-17T03:51:42.515Z,92570.00
2023-01-17T03:52:42.499Z,92572.00
2023-01-17T03:53:42.485Z,92570.00
2023-01-17T03:54:42.478Z,92572.00
2023-01-17T03:55:42.464Z,92572.00
2023-01-17T03:56:42.460Z,92582.00
2023-01-17T03:57:42.446Z,92580.00
2023-01-17T03:58:42.458Z,92572.00
2023-01-17T03:59:42.442Z,92572.00
2023-01-17T04:00:42.419Z,92570.00
2023-01-17T04:01:42.497Z,92570.00
2023-01-17T04:02:42.469Z,92564.00
2023-01-17T04:03:42.395Z,92564.00
2023-01-17T04:04:42.381Z,92564.00
2023-01-17T04:05:42.372Z,92562.00
2023-01-17T04:06:42.397Z,92558.00
2023-01-17T04:07:42.361Z,92556.00
2023-01-17T04:08:42.346Z,92558.00
2023-01-17T04:09:42.339Z,92556.00
2023-01-17T04:10:42.327Z,92554.00
2023-01-17T04:11:42.361Z,92556.00
2023-01-17T04:12:42.310Z,92556.00
2023-01-17T04:13:42.318Z,92556.00
2023-01-17T04:14:42.293Z,92552.00
2023-01-17T04:15:42.281Z,92552.00
2023-01-17T04:16:42.301Z,92550.00
2023-01-17T04:17:42.263Z,92549.00
2023-01-17T04:18:42.273Z,92547.00
2023-01-17T04:19:42.251Z,92552.00
2023-01-17T04:20:42.235Z,92549.00
2023-01-17T04:21:42.226Z,92549.00
2023-01-17T04:22:42.256Z,92547.00
2023-01-17T04:23:42.222Z,92547.00
2023-01-17T04:24:42.199Z,92549.00
2023-01-17T04:25:42.210Z,92550.00
2023-01-17T04:26:42.186Z,92550.00
2023-01-17T04:27:42.171Z,92549.00
2023-01-17T04:28:42.196Z,92547.00
2023-01-17T04:29:42.155Z,92547.00
2023-01-17T04:30:42.208Z,92547.00
2023-01-17T04:31:42.255Z,92547.00
2023-01-17T04:32:42.132Z,92547.00
2023-01-17T04:33:42.124Z,92549.00
2023-01-17T04:34:42.109Z,92547.00
2023-01-17T04:35:42.099Z,92550.00
2023-01-17T04:36:42.089Z,92549.00
2023-01-17T04:37:42.081Z,92547.00
2023-01-17T04:38:42.251Z,92547.00
2023-01-17T04:39:42.064Z,92547.00
2023-01-17T04:40:42.057Z,92547.00
2023-01-17T04:41:42.047Z,92545.00
2023-01-17T04:42:42.036Z,92547.00
2023-01-17T04:43:42.028Z,92545.00
2023-01-17T04:44:42.021Z,92543.00
2023-01-17T04:45:42.011Z,92543.00
2023-01-17T04:46:42.003Z,92545.00
2023-01-17T04:47:42.000Z,92547.00
2023-01-17T04:48:41.982Z,92545.00
2023-01-17T04:49:44.071Z,92543.00
2023-01-17T04:50:41.965Z,92541.00
2023-01-17T04:51:41.958Z,92541.00
2023-01-17T04:52:41.946Z,92543.00
2023-01-17T04:53:41.952Z,92541.00
2023-01-17T04:55:41.917Z,92547.00
2023-01-17T04:56:41.913Z,92549.00
2023-01-17T04:57:41.907Z,92547.00
2023-01-17T04:58:41.890Z,92545.00
2023-01-17T04:59:41.895Z,92541.00
2023-01-17T05:00:41.875Z,92545.00
2023-01-17T05:01:42.017Z,92543.00
2023-01-17T05:02:41.871Z,92543.00
2023-01-17T05:03:41.849Z,92545.00
2023-01-17T05:04:41.844Z,92547.00
2023-01-17T05:05:41.835Z,92547.00
2023-01-17T05:06:41.822Z,92547.00
2023-01-17T05:07:41.816Z,92547.00
2023-01-17T05:08:41.804Z,92547.00
2023-01-17T05:09:41.793Z,92545.00
2023-01-17T05:10:41.820Z,92545.00
2023-01-17T05:11:41.777Z,92545.00
2023-01-17T05:12:41.769Z,92543.00
2023-01-17T05:13:41.769Z,92547.00
2023-01-17T05:14:41.750Z,92545.00
2023-01-17T05:15:41.815Z,92547.00
2023-01-17T05:16:41.787Z,92547.00
2023-01-17T05:17:41.742Z,92547.00
2023-01-17T05:18:41.717Z,92545.00
2023-01-17T05:19:41.708Z,92547.00
2023-01-17T05:20:41.703Z,92545.00
2023-01-17T05:21:41.687Z,92549.00
2023-01-17T05:22:41.676Z,92547.00
2023-01-17T05:23:41.672Z,92549.00
2023-01-17T05:24:41.665Z,92549.00
2023-01-17T05:25:41.668Z,92550.00
2023-01-17T05:26:41.674Z,92550.00
2023-01-17T05:27:41.638Z,92556.00
2023-01-17T05:28:41.629Z,92554.00
2023-01-17T05:29:41.620Z,92558.00
2023-01-17T05:30:41.670Z,92562.00
2023-01-17T05:31:41.596Z,92562.00
2023-01-17T05:32:41.590Z,92562.00
2023-01-17T05:33:41.604Z,92562.00
2023-01-17T05:34:41.571Z,92566.00
2023-01-17T05:35:41.570Z,92566.00
2023-01-17T05:36:41.551Z,92570.00
2023-01-17T05:37:41.543Z,92570.00
2023-01-17T05:38:41.540Z,92580.00
2023-01-17T05:39:41.525Z,92582.00
2023-01-17T05:40:41.518Z,92584.00
2023-01-17T05:41:41.510Z,92587.00
2023-01-17T05:42:41.635Z,92589.00
2023-01-17T05:43:41.496Z,92589.00
2023-01-17T05:44:41.480Z,92591.00
2023-01-17T05:45:41.476Z,92593.00
2023-01-17T05:46:41.494Z,92593.00
2023-01-17T05:47:41.463Z,92595.00
2023-01-17T05:48:41.456Z,92597.00
2023-01-17T05:49:41.442Z,92597.00
2023-01-17T05:50:41.427Z,92595.00
2023-01-17T05:51:41.417Z,92599.00
2023-01-17T05:52:41.427Z,92599.00
2023-01-17T05:53:41.402Z,92601.00
2023-01-17T05:54:41.392Z,92599.00
2023-01-17T05:55:41.383Z,92601.00
2023-01-17T05:56:41.376Z,92601.00
2023-01-17T05:57:41.372Z,92601.00
2023-01-17T05:58:41.383Z,92601.00
2023-01-17T05:59:41.345Z,92603.00
2023-01-17T06:00:41.342Z,92601.00
2023-01-17T06:01:41.358Z,92605.00
2023-01-17T06:02:41.404Z,92605.00
2023-01-17T06:03:41.308Z,92607.00
2023-01-17T06:04:41.316Z,92605.00
2023-01-17T06:05:41.303Z,92609.00
2023-01-17T06:06:41.289Z,92605.00
2023-01-17T06:07:41.275Z,92603.00
2023-01-17T06:08:41.281Z,92607.00
2023-01-17T06:09:41.268Z,92607.00
2023-01-17T06:10:41.247Z,92603.00
2023-01-17T06:11:41.242Z,92603.00
2023-01-17T06:12:41.227Z,92603.00
2023-01-17T06:13:41.220Z,92601.00
2023-01-17T06:14:41.333Z,92599.00
2023-01-17T06:15:41.271Z,92597.00
2023-01-17T06:16:41.198Z,92595.00
2023-01-17T06:17:41.197Z,92595.00
2023-01-17T06:18:41.190Z,92593.00
2023-01-17T06:19:41.287Z,92591.00
2023-01-17T06:20:41.171Z,92591.00
2023-01-17T06:21:41.164Z,92586.00
2023-01-17T06:22:41.143Z,92584.00
2023-01-17T06:23:41.149Z,92580.00
2023-01-17T06:24:41.283Z,92582.00
2023-01-17T06:25:41.117Z,92586.00
2023-01-17T06:26:41.108Z,92589.00
2023-01-17T06:27:41.095Z,92595.00
2023-01-17T06:28:41.102Z,92595.00
2023-01-17T06:29:41.289Z,92595.00
2023-01-17T06:30:41.098Z,92599.00
2023-01-17T06:31:41.163Z,92595.00
2023-01-17T06:32:41.059Z,92593.00
2023-01-17T06:33:41.040Z,92595.00
2023-01-17T06:34:41.308Z,92593.00
2023-01-17T06:35:41.023Z,92595.00
2023-01-17T06:36:41.011Z,92595.00
2023-01-17T06:37:41.004Z,92597.00
2023-01-17T06:38:41.285Z,92601.00
2023-01-17T06:39:40.995Z,92597.00
2023-01-17T06:40:40.991Z,92601.00
2023-01-17T06:42:41.194Z,92603.00
2023-01-17T06:43:41.287Z,92605.00
2023-01-17T06:44:40.966Z,92601.00
2023-01-17T06:45:40.933Z,92599.00
2023-01-17T06:46:41.000Z,92599.00
2023-01-17T06:47:40.938Z,92601.00
2023-01-17T06:48:41.686Z,92603.00
2023-01-17T06:49:41.997Z,92597.00
2023-01-17T06:50:41.302Z,92597.00
2023-01-17T06:51:43.527Z,92599.00
2023-01-17T06:52:40.873Z,92595.00
2023-01-17T06:53:41.192Z,92601.00
2023-01-17T06:55:41.321Z,92599.00
2023-01-17T06:57:41.335Z,92603.00
2023-01-17T06:58:41.021Z,92601.00
2023-01-17T07:00:41.237Z,92603.00
2023-01-17T07:02:40.803Z,92607.00
2023-01-17T07:03:41.063Z,92605.00
2023-01-17T07:04:40.796Z,92605.00
2023-01-17T07:05:40.759Z,92603.00
2023-01-17T07:06:40.767Z,92599.00
2023-01-17T07:07:56.331Z,92599.00
2023-01-17T07:09:40.798Z,92587.00
2023-01-17T07:10:40.929Z,92580.00
2023-01-17T07:11:40.704Z,92564.00
2023-01-17T07:12:40.699Z,92566.00
2023-01-17T07:13:40.685Z,92568.00
2023-01-17T07:14:40.676Z,92568.00
2023-01-17T07:15:40.676Z,92570.00
2023-01-17T07:16:40.676Z,92580.00
2023-01-17T07:17:40.657Z,92582.00
2023-01-17T07:18:40.664Z,92584.00
2023-01-17T07:19:40.634Z,92584.00
2023-01-17T07:20:40.626Z,92582.00
2023-01-17T07:21:40.649Z,92586.00
2023-01-17T07:22:40.606Z,92584.00
2023-01-17T07:23:40.605Z,92584.00
2023-01-17T07:24:40.601Z,92572.00
2023-01-17T07:25:40.584Z,92566.00
2023-01-17T07:26:40.567Z,92566.00
2023-01-17T07:27:40.570Z,92566.00
2023-01-17T07:28:40.807Z,92570.00
2023-01-17T07:29:40.540Z,92570.00
2023-01-17T07:30:40.528Z,92580.00
2023-01-17T07:31:40.595Z,92582.00
2023-01-17T07:32:40.518Z,92586.00
2023-01-17T07:33:40.815Z,92589.00
2023-01-17T07:34:40.522Z,92597.00
2023-01-17T07:35:40.490Z,92597.00
2023-01-17T07:36:40.476Z,92597.00
2023-01-17T07:37:40.467Z,92593.00
2023-01-17T07:38:40.473Z,92589.00
2023-01-17T07:39:40.462Z,92586.00
2023-01-17T07:40:42.416Z,92587.00
2023-01-17T07:41:40.431Z,92587.00
2023-01-17T07:42:40.429Z,92591.00
2023-01-17T07:43:40.413Z,92587.00
2023-01-17T07:44:41.407Z,92587.00
2023-01-17T07:46:40.480Z,92582.00
2023-01-17T07:47:40.385Z,92584.00
2023-01-17T07:49:40.361Z,92586.00
2023-01-17T07:50:40.379Z,92587.00
2023-01-17T07:51:40.348Z,92587.00
2023-01-17T07:52:40.335Z,92586.00
2023-01-17T07:54:40.315Z,92587.00
2023-01-17T07:55:40.313Z,92589.00
2023-01-17T07:56:40.311Z,92589.00
2023-01-17T07:57:40.295Z,92591.00
2023-01-17T07:58:40.315Z,92595.00
2023-01-17T07:59:40.294Z,92593.00
2023-01-17T08:00:40.321Z,92589.00
2023-01-17T08:01:40.488Z,92587.00
2023-01-17T08:02:40.258Z,92589.00
2023-01-17T08:03:40.438Z,92593.00
2023-01-17T08:04:40.300Z,92595.00
2023-01-17T08:05:40.319Z,92601.00
2023-01-17T08:06:40.237Z,92599.00
2023-01-17T08:10:40.315Z,92587.00
2023-01-17T08:15:40.334Z,92580.00
2023-01-17T08:20:40.322Z,92570.00
2023-01-17T08:25:40.325Z,92566.00
2023-01-17T08:30:40.326Z,92552.00
2023-01-17T08:33:55.591Z,92545.00
2023-01-17T08:35:40.331Z,92539.00
2023-01-17T08:38:40.416Z,92525.00
2023-01-17T08:42:40.465Z,92509.00
2023-01-17T08:43:40.938Z,92507.00
2023-01-17T09:02:40.242Z,92472.00
2023-01-17T09:04:39.838Z,92482.00
2023-01-17T09:05:40.103Z,92482.00
2023-01-17T09:07:39.814Z,92480.00
2023-01-17T09:08:39.709Z,92478.00
2023-01-17T09:10:39.897Z,92476.00
2023-01-17T09:12:39.848Z,92474.00
2023-01-17T09:13:39.688Z,92468.00
2023-01-17T09:14:39.664Z,92468.00
2023-01-17T09:15:39.847Z,92466.00
2023-01-17T09:17:40.650Z,92460.00
2023-01-17T09:19:40.623Z,92448.00
2023-01-17T09:21:43.919Z,92445.00
2023-01-17T09:22:40.598Z,92435.00
2023-01-17T09:24:39.701Z,92443.00
2023-01-17T09:25:39.545Z,92443.00
2023-01-17T09:26:39.912Z,92445.00
2023-01-17T09:28:39.576Z,92448.00
2023-01-17T09:33:39.517Z,92448.00
2023-01-17T09:34:40.494Z,92448.00
2023-01-17T09:36:39.908Z,92452.00
2023-01-17T09:37:39.476Z,92452.00
2023-01-17T09:38:39.459Z,92448.00
2023-01-17T09:39:39.552Z,92445.00
2023-01-17T09:40:39.447Z,92443.00
2023-01-17T09:42:40.454Z,92439.00
2023-01-17T09:44:39.399Z,92433.00
2023-01-17T09:45:39.519Z,92427.00
2023-01-17T09:46:40.136Z,92431.00
2023-01-17T09:48:39.345Z,92429.00
2023-01-17T09:49:39.376Z,92435.00
2023-01-17T09:50:39.387Z,92433.00
2023-01-17T09:51:42.522Z,92433.00
2023-01-17T09:53:39.307Z,92431.00
2023-01-17T09:54:39.302Z,92429.00
2023-01-17T09:55:39.355Z,92425.00
2023-01-17T09:56:39.528Z,92417.00
2023-01-17T09:57:39.365Z,92417.00
2023-01-17T09:58:39.288Z,92417.00
2023-01-17T09:59:39.285Z,92421.00
2023-01-17T10:00:39.242Z,92419.00
2023-01-17T10:01:39.437Z,92423.00
2023-01-17T10:02:39.537Z,92427.00
2023-01-17T10:03:39.335Z,92429.00
2023-01-17T10:04:39.194Z,92429.00
2023-01-17T10:05:39.360Z,92433.00
2023-01-17T10:06:39.188Z,92431.00
2023-01-17T10:07:39.179Z,92427.00
2023-01-17T10:08:39.169Z,92423.00
2023-01-17T10:09:39.366Z,92419.00
2023-01-17T10:10:39.146Z,92415.00
2023-01-17T10:11:39.166Z,92409.00
2023-01-17T10:12:39.130Z,92409.00
2023-01-17T10:13:39.365Z,92405.00
2023-01-17T10:14:39.132Z,92405.00
2023-01-17T10:15:39.108Z,92407.00
2023-01-17T10:16:39.124Z,92407.00
2023-01-17T10:17:39.084Z,92409.00
2023-01-17T10:18:39.398Z,92409.00
2023-01-17T10:19:39.077Z,92403.00
2023-01-17T10:20:39.067Z,92403.00
2023-01-17T10:21:39.054Z,92401.00
2023-01-17T10:22:39.067Z,92395.00
2023-01-17T10:23:39.370Z,92390.00
2023-01-17T10:24:39.023Z,92386.00
2023-01-17T10:25:39.383Z,92380.00
2023-01-17T10:26:39.009Z,92376.00
2023-01-17T10:27:38.994Z,92370.00
2023-01-17T10:28:38.988Z,92362.00
2023-01-17T10:29:38.987Z,92360.00
2023-01-17T10:31:39.138Z,92352.00
2023-01-17T10:32:39.060Z,92345.00
2023-01-17T10:33:38.954Z,92341.00
2023-01-17T10:34:38.942Z,92337.00
2023-01-17T10:36:38.931Z,92308.00
2023-01-17T10:37:40.606Z,92300.00
2023-01-17T10:40:39.057Z,92284.00
2023-01-17T10:42:39.058Z,92278.00
2023-01-17T10:44:39.018Z,92268.00
2023-01-17T10:45:39.009Z,92266.00
2023-01-17T10:46:39.049Z,92264.00
2023-01-17T10:47:38.987Z,92259.00
2023-01-17T10:49:38.973Z,92264.00
2023-01-17T10:50:38.960Z,92270.00
2023-01-17T10:51:38.955Z,92276.00
2023-01-17T10:52:38.942Z,92284.00
2023-01-17T10:55:38.919Z,92288.00
2023-01-17T10:56:38.911Z,92288.00
2023-01-17T10:58:38.888Z,92284.00
2023-01-17T10:59:38.883Z,92286.00
2023-01-17T11:00:38.884Z,92286.00
2023-01-17T11:01:38.945Z,92286.00
2023-01-17T11:02:38.922Z,92288.00
2023-01-17T11:03:39.864Z,92294.00
2023-01-17T11:04:38.844Z,92302.00
2023-01-17T11:05:38.830Z,92300.00
2023-01-17T11:06:53.185Z,92302.00
2023-01-17T11:07:40.091Z,92306.00
2023-01-17T11:08:38.801Z,92300.00
2023-01-17T11:09:38.911Z,92302.00
2023-01-17T11:10:39.043Z,92308.00
2023-01-17T11:11:38.775Z,92310.00
2023-01-17T11:12:38.762Z,92312.00
2023-01-17T11:13:38.764Z,92313.00
2023-01-17T11:15:38.744Z,92323.00
2023-01-17T11:16:38.731Z,92312.00
2023-01-17T11:17:38.720Z,92325.00
2023-01-17T11:18:38.845Z,92313.00
2023-01-17T11:19:38.891Z,92315.00
2023-01-17T11:20:38.723Z,92315.00
2023-01-17T11:21:38.723Z,92323.00
2023-01-17T11:22:38.674Z,92325.00
2023-01-17T11:23:38.666Z,92325.00
2023-01-17T11:25:38.645Z,92308.00
2023-01-17T11:26:38.710Z,92308.00
2023-01-17T11:27:38.644Z,92306.00
2023-01-17T11:28:38.653Z,92306.00
2023-01-17T11:29:38.911Z,92306.00
2023-01-17T11:31:38.631Z,92300.00
2023-01-17T11:32:38.589Z,92298.00
2023-01-17T11:33:38.578Z,92294.00
2023-01-17T11:35:38.560Z,92298.00
2023-01-17T11:36:38.547Z,92300.00
2023-01-17T11:37:38.544Z,92296.00
2023-01-17T11:38:38.538Z,92296.00
2023-01-17T11:40:38.537Z,92288.00
2023-01-17T11:41:38.504Z,92284.00
2023-01-17T11:42:39.013Z,92282.00
2023-01-17T11:43:38.483Z,92280.00
2023-01-17T11:45:38.464Z,92272.00
2023-01-17T11:47:38.462Z,92270.00
2023-01-17T11:48:38.444Z,92272.00
2023-01-17T11:49:38.435Z,92272.00
2023-01-17T11:50:38.455Z,92272.00
2023-01-17T11:52:38.404Z,92274.00
2023-01-17T11:53:38.424Z,92272.00
2023-01-17T11:54:38.390Z,92272.00
2023-01-17T11:55:38.385Z,92270.00
2023-01-17T11:56:38.395Z,92262.00
2023-01-17T11:57:38.363Z,92255.00
2023-01-17T11:58:38.363Z,92247.00
2023-01-17T11:59:38.358Z,92245.00
2023-01-17T12:00:38.391Z,92235.00
2023-01-17T12:01:38.400Z,92233.00
2023-01-17T12:02:38.320Z,92223.00
2023-01-17T12:03:38.350Z,92223.00
2023-01-17T12:04:38.363Z,92221.00
2023-01-17T12:05:38.288Z,92217.00
2023-01-17T12:06:56.145Z,92217.00
2023-01-17T12:07:38.284Z,92217.00
2023-01-17T12:09:38.487Z,92212.00
2023-01-17T12:10:38.245Z,92208.00
2023-01-17T12:11:38.437Z,92204.00
2023-01-17T12:12:38.237Z,92196.00
2023-01-17T12:13:38.219Z,92192.00
2023-01-17T12:14:38.211Z,92184.00
2023-01-17T12:15:38.235Z,92188.00
2023-01-17T12:16:38.192Z,92178.00
2023-01-17T12:18:38.175Z,92180.00
2023-01-17T12:19:38.174Z,92182.00
2023-01-17T12:20:38.156Z,92184.00
2023-01-17T12:21:38.145Z,92180.00
2023-01-17T12:23:38.127Z,92176.00
2023-01-17T12:24:38.121Z,92172.00
2023-01-17T12:25:38.113Z,92170.00
2023-01-17T12:26:38.107Z,92168.00
2023-01-17T12:28:38.085Z,92172.00
2023-01-17T12:29:38.073Z,92174.00
2023-01-17T12:30:38.068Z,92170.00
2023-01-17T12:31:38.196Z,92172.00
2023-01-17T12:33:38.040Z,92172.00
2023-01-17T12:34:38.033Z,92172.00
2023-01-17T12:36:38.025Z,92170.00
2023-01-17T12:37:38.017Z,92176.00
2023-01-17T12:40:37.998Z,92176.00
2023-01-17T12:41:37.967Z,92176.00
2023-01-17T12:42:37.966Z,92172.00
2023-01-17T12:43:37.963Z,92172.00
2023-01-17T12:46:38.012Z,92165.00
2023-01-17T12:47:37.917Z,92168.00
2023-01-17T12:48:37.909Z,92172.00
2023-01-17T12:49:37.891Z,92170.00
2023-01-17T12:50:37.915Z,92170.00
2023-01-17T12:51:37.886Z,92170.00
2023-01-17T12:52:37.870Z,92172.00
2023-01-17T12:53:37.860Z,92168.00
2023-01-17T12:54:37.874Z,92167.00
2023-01-17T12:55:37.847Z,92165.00
2023-01-17T12:56:37.843Z,92165.00
2023-01-17T12:57:37.822Z,92157.00
2023-01-17T12:58:37.916Z,92159.00
2023-01-17T12:59:37.825Z,92157.00
2023-01-17T13:00:37.834Z,92155.00
2023-01-17T13:01:37.879Z,92157.00
2023-01-17T13:02:37.777Z,92155.00
2023-01-17T13:03:37.770Z,92153.00
2023-01-17T13:04:46.903Z,92149.00
2023-01-17T13:05:37.931Z,92149.00
2023-01-17T13:06:37.740Z,92147.00
2023-01-17T13:08:37.986Z,92145.00
2023-01-17T13:09:37.719Z,92145.00
2023-01-17T13:11:37.701Z,92145.00
2023-01-17T13:12:37.699Z,92143.00
2023-01-17T13:13:37.679Z,92139.00
2023-01-17T13:14:37.668Z,92139.00
2023-01-17T13:16:37.666Z,92143.00
2023-01-17T13:17:37.652Z,92145.00
2023-01-17T13:19:37.624Z,92143.00
2023-01-17T13:20:38.020Z,92139.00
2023-01-17T13:21:37.694Z,92139.00
2023-01-17T13:22:37.609Z,92135.00
2023-01-17T13:23:37.589Z,92137.00
2023-01-17T13:25:37.572Z,92135.00
2023-01-17T13:27:37.552Z,92141.00
2023-01-17T13:28:37.546Z,92139.00
2023-01-17T13:29:37.536Z,92145.00
2023-01-17T13:30:37.539Z,92147.00
2023-01-17T13:32:37.507Z,92139.00
2023-01-17T13:33:37.505Z,92141.00
2023-01-17T13:34:37.490Z,92137.00
2023-01-17T13:35:37.481Z,92135.00
2023-01-17T13:37:37.471Z,92127.00
2023-01-17T13:38:37.456Z,92123.00
2023-01-17T13:39:37.444Z,92121.00
2023-01-17T13:40:37.471Z,92119.00
2023-01-17T13:41:37.429Z,92113.00
2023-01-17T13:42:37.452Z,92115.00
2023-01-17T13:43:37.417Z,92110.00
2023-01-17T13:44:37.447Z,92112.00
2023-01-17T13:45:37.431Z,92115.00
2023-01-17T13:46:37.436Z,92113.00
2023-01-17T13:47:37.388Z,92108.00
2023-01-17T13:48:37.367Z,92104.00
2023-01-17T13:49:37.434Z,92098.00
2023-01-17T13:50:37.357Z,92096.00
2023-01-17T13:51:37.442Z,92092.00
2023-01-17T13:52:37.332Z,92092.00
2023-01-17T13:53:37.326Z,92086.00
2023-01-17T13:54:37.437Z,92080.00
2023-01-17T13:55:37.302Z,92078.00
2023-01-17T13:56:37.309Z,92078.00
2023-01-17T13:57:37.288Z,92074.00
2023-01-17T13:58:37.313Z,92070.00
2023-01-17T13:59:37.440Z,92070.00
2023-01-17T14:00:37.310Z,92068.00
2023-01-17T14:01:37.649Z,92059.00
2023-01-17T14:02:37.328Z,92053.00
2023-01-17T14:03:37.241Z,92043.00
2023-01-17T14:04:37.219Z,92039.00
2023-01-17T14:05:37.212Z,92033.00
2023-01-17T14:06:37.441Z,92031.00
2023-01-17T14:07:37.200Z,92031.00
2023-01-17T14:08:37.184Z,92028.00
2023-01-17T14:09:37.174Z,92028.00
2023-01-17T14:10:37.167Z,92028.00
2023-01-17T14:12:37.148Z,92024.00
2023-01-17T14:13:37.144Z,92024.00
2023-01-17T14:15:37.137Z,92024.00
2023-01-17T14:16:37.160Z,92022.00
2023-01-17T14:18:37.126Z,92022.00
2023-01-17T14:19:37.121Z,92026.00
2023-01-17T14:20:37.078Z,92028.00
2023-01-17T14:21:37.069Z,92029.00
2023-01-17T14:23:37.055Z,92024.00
2023-01-17T14:24:37.039Z,92018.00
2023-01-17T14:25:37.044Z,92014.00